Overview Statistics Trail Chart Weather Telemetry Raw packets
 

This is the latest recevied weather packets stored in our database for station/object E23BMY-13. If no packets are shown the sender has not sent any weather packets the latest 10 day(s).

<< 45 46 47 48 49 50 51 >>
Time Temp. Humidity Pressure Rain* Wind** Luminosity Snow
1788260104 28.33° C 83% 1008.2 hPa 0 mm - - -
1788259803 28.33° C 84% 1008.1 hPa 0 mm - - -
1788259503 28.33° C 83% 1008.2 hPa 0 mm - - -
1788259203 28.33° C 84% 1008.1 hPa 0 mm - - -
1788258904 27.78° C 84% 1008.2 hPa 0 mm - - -
1788258604 27.78° C 84% 1008.2 hPa 0 mm - - -
1788258303 27.78° C 84% 1008 hPa 0 mm - - -
1788258004 27.78° C 84% 1007.9 hPa 0 mm - - -
1788257703 27.78° C 84% 1007.7 hPa 0 mm - - -
1788257403 27.78° C 85% 1007.7 hPa 0 mm - - -
1788257104 27.22° C 87% 1008 hPa 0 mm - - -
1788256803 27.78° C 85% 1008.3 hPa 0 mm - - -
1788256504 28.33° C 83% 1008.4 hPa 0 mm - - -
1788256204 28.89° C 78% 1008.5 hPa 0 mm - - -
1788255904 30.56° C 70% 1008.1 hPa 0 mm - - -
1788255604 32.22° C 61% 1008 hPa 0 mm - - -
1788255303 32.78° C 60% 1007.5 hPa 0 mm - - -
1788255004 33.33° C 59% 1007.4 hPa 0 mm - - -
1788254703 33.33° C 59% 1007.4 hPa 0 mm - - -
1788254408 33.33° C 59% 1007.2 hPa 0 mm - - -
1788254104 33.33° C 58% 1007.3 hPa 0 mm - - -
1788253804 33.33° C 58% 1007.3 hPa 0 mm - - -
1788253525 33.33° C 59% 1007.4 hPa 0 mm - - -
1788253204 33.33° C 59% 1007.4 hPa 0 mm - - -
1788252903 33.33° C 59% 1007.5 hPa 0 mm - - -

* Rain latest hour (hover to see other rain measurements)
** Current wind speed in m/s (hover to see current wind gust speed)